createdAt,value
2023-02-26T00:02:11.643Z,-1.26
2023-02-26T00:04:42.978Z,-1.28
2023-02-26T00:07:14.244Z,-1.29
2023-02-26T00:09:45.575Z,-1.30
2023-02-26T00:12:17.111Z,-1.34
2023-02-26T00:14:49.053Z,-1.38
2023-02-26T00:17:26.900Z,-1.42
2023-02-26T00:19:58.749Z,-1.40
2023-02-26T00:22:30.345Z,-1.40
2023-02-26T00:25:01.778Z,-1.85
2023-02-26T00:27:33.079Z,-1.43
2023-02-26T00:30:07.898Z,-1.48
2023-02-26T00:32:39.976Z,-1.49
2023-02-26T00:35:14.573Z,-1.65
2023-02-26T00:38:00.215Z,-1.51
2023-02-26T00:40:44.240Z,-1.70
2023-02-26T00:43:18.795Z,-1.55
2023-02-26T00:46:13.841Z,-1.55
2023-02-26T00:49:16.262Z,-1.53
2023-02-26T00:51:51.921Z,-1.50
2023-02-26T00:54:28.470Z,-1.54
2023-02-26T00:56:59.757Z,-1.58
2023-02-26T00:59:31.324Z,-1.75
2023-02-26T01:02:02.665Z,-1.61
2023-02-26T01:04:34.293Z,-1.75
2023-02-26T01:07:06.976Z,-1.64
2023-02-26T01:09:38.710Z,-1.73
2023-02-26T01:12:13.187Z,-1.65
2023-02-26T01:14:47.187Z,-1.61
2023-02-26T01:17:25.113Z,-1.60
2023-02-26T01:20:09.128Z,-1.63
2023-02-26T01:22:55.571Z,-1.75
2023-02-26T01:25:34.830Z,-1.73
2023-02-26T01:28:06.440Z,-1.67
2023-02-26T01:30:38.255Z,-1.83
2023-02-26T01:33:22.081Z,-1.71
2023-02-26T01:36:00.088Z,-1.73
2023-02-26T01:39:06.181Z,-1.72
2023-02-26T01:41:45.942Z,-1.75
2023-02-26T01:44:28.344Z,-1.77
2023-02-26T01:47:26.185Z,-1.80
2023-02-26T01:49:59.007Z,-1.99
2023-02-26T01:53:02.120Z,-1.80
2023-02-26T01:55:33.471Z,-1.81
2023-02-26T01:58:05.816Z,-1.82
2023-02-26T02:00:37.220Z,-1.80
2023-02-26T02:03:10.337Z,-1.82
2023-02-26T02:05:46.051Z,-1.87
2023-02-26T02:08:19.214Z,-1.85
2023-02-26T02:10:51.455Z,-1.85
2023-02-26T02:13:50.164Z,-1.89
2023-02-26T02:16:40.119Z,-1.96
2023-02-26T02:19:49.121Z,-2.05
2023-02-26T02:22:45.062Z,-2.08
2023-02-26T02:25:19.282Z,-2.07
2023-02-26T02:28:14.043Z,-2.11
2023-02-26T02:31:26.989Z,-2.12
2023-02-26T02:34:12.016Z,-2.13
2023-02-26T02:36:51.514Z,-2.11
2023-02-26T02:39:28.474Z,-2.09
2023-02-26T02:42:35.403Z,-2.04
2023-02-26T02:45:29.646Z,-2.02
2023-02-26T02:48:13.809Z,-2.08
2023-02-26T02:50:55.408Z,-2.01
2023-02-26T02:53:36.410Z,-2.00
2023-02-26T02:56:19.961Z,-2.02
2023-02-26T02:59:03.010Z,-1.99
2023-02-26T03:01:35.979Z,-2.00
2023-02-26T03:04:11.241Z,-1.97
2023-02-26T03:06:43.254Z,-2.13
2023-02-26T03:09:14.522Z,-2.18
2023-02-26T03:11:46.044Z,-1.97
2023-02-26T03:14:18.302Z,-2.06
2023-02-26T03:16:58.441Z,-1.96
2023-02-26T03:20:13.670Z,-1.99
2023-02-26T03:22:48.001Z,-1.99
2023-02-26T03:25:27.069Z,-2.09
2023-02-26T03:28:08.728Z,-2.04
2023-02-26T03:30:53.533Z,-2.05
2023-02-26T03:33:50.561Z,-2.29
2023-02-26T03:36:31.320Z,-2.18
2023-02-26T03:39:16.224Z,-2.04
2023-02-26T03:41:55.975Z,-2.03
2023-02-26T03:44:33.680Z,-2.04
2023-02-26T03:47:10.161Z,-2.14
2023-02-26T03:49:53.121Z,-2.07
2023-02-26T03:52:28.723Z,-2.10
2023-02-26T03:55:33.100Z,-2.12
2023-02-26T03:58:04.748Z,-2.32
2023-02-26T04:00:40.318Z,-2.17
2023-02-26T04:04:02.048Z,-2.19
2023-02-26T04:06:34.854Z,-2.23
2023-02-26T04:09:06.577Z,-2.40
2023-02-26T04:11:39.445Z,-2.24
2023-02-26T04:14:10.916Z,-2.22
2023-02-26T04:16:44.014Z,-2.34
2023-02-26T04:19:15.498Z,-2.20
2023-02-26T04:21:46.858Z,-2.17
2023-02-26T04:24:18.178Z,-2.27
2023-02-26T04:26:49.619Z,-2.19
2023-02-26T04:29:20.873Z,-2.20
2023-02-26T04:31:52.733Z,-2.19
2023-02-26T04:34:24.064Z,-2.17
2023-02-26T04:36:55.362Z,-2.20
2023-02-26T04:39:26.669Z,-2.21
2023-02-26T04:41:57.932Z,-2.41
2023-02-26T04:44:29.223Z,-2.26
2023-02-26T04:47:00.568Z,-2.56
2023-02-26T04:49:31.901Z,-2.30
2023-02-26T04:52:03.454Z,-2.35
2023-02-26T04:54:34.863Z,-2.34
2023-02-26T04:57:06.166Z,-2.39
2023-02-26T04:59:38.773Z,-2.58
2023-02-26T05:02:10.083Z,-2.46
2023-02-26T05:04:41.430Z,-2.64
2023-02-26T05:07:12.698Z,-2.55
2023-02-26T05:09:43.988Z,-2.54
2023-02-26T05:12:16.002Z,-2.75
2023-02-26T05:14:47.344Z,-2.54
2023-02-26T05:17:18.612Z,-2.56
2023-02-26T05:19:49.903Z,-2.59
2023-02-26T05:22:21.231Z,-2.64
2023-02-26T05:24:52.489Z,-2.71
2023-02-26T05:27:23.873Z,-2.68
2023-02-26T05:29:55.132Z,-2.68
2023-02-26T05:32:26.623Z,-2.67
2023-02-26T05:34:57.922Z,-2.66
2023-02-26T05:37:29.263Z,-2.79
2023-02-26T05:40:00.540Z,-2.80
2023-02-26T05:42:31.959Z,-2.64
2023-02-26T05:45:06.012Z,-2.61
2023-02-26T05:47:37.482Z,-2.64
2023-02-26T05:50:09.678Z,-2.65
2023-02-26T05:52:41.196Z,-2.65
2023-02-26T05:55:12.459Z,-2.86
2023-02-26T05:57:43.826Z,-2.80
2023-02-26T06:00:15.498Z,-2.66
2023-02-26T06:02:46.841Z,-2.79
2023-02-26T06:05:18.427Z,-2.67
2023-02-26T06:07:49.730Z,-2.61
2023-02-26T06:10:21.068Z,-2.57
2023-02-26T06:12:52.356Z,-2.53
2023-02-26T06:15:24.134Z,-2.64
2023-02-26T06:17:55.451Z,-2.53
2023-02-26T06:20:26.925Z,-2.53
2023-02-26T06:22:58.201Z,-2.52
2023-02-26T06:25:29.473Z,-2.51
2023-02-26T06:28:00.748Z,-2.51
2023-02-26T06:30:32.185Z,-2.65
2023-02-26T06:33:03.624Z,-2.50
2023-02-26T06:35:35.002Z,-2.52
2023-02-26T06:38:06.472Z,-2.50
2023-02-26T06:40:37.866Z,-2.51
2023-02-26T06:43:09.144Z,-2.49
2023-02-26T06:45:40.499Z,-2.47
2023-02-26T06:48:12.278Z,-2.44
2023-02-26T06:50:43.539Z,-2.39
2023-02-26T06:53:14.880Z,-2.33
2023-02-26T06:55:49.552Z,-2.26
2023-02-26T06:58:21.550Z,-2.15
2023-02-26T07:00:52.862Z,-2.07
2023-02-26T07:03:24.286Z,-2.00
2023-02-26T07:05:55.733Z,-1.93
2023-02-26T07:08:27.013Z,-1.97
2023-02-26T07:10:58.261Z,-1.79
2023-02-26T07:13:29.551Z,-1.84
2023-02-26T07:16:00.815Z,-1.79
2023-02-26T07:18:32.102Z,-1.58
2023-02-26T07:21:04.611Z,-1.45
2023-02-26T07:23:35.912Z,-1.37
2023-02-26T07:26:08.859Z,-1.30
2023-02-26T07:28:40.203Z,-1.18
2023-02-26T07:31:11.591Z,-1.09
2023-02-26T07:33:43.530Z,-1.10
2023-02-26T07:36:15.001Z,-1.03
2023-02-26T07:38:46.292Z,-0.91
2023-02-26T07:41:17.707Z,-0.83
2023-02-26T07:43:49.179Z,-0.63
2023-02-26T07:46:20.480Z,-0.54
2023-02-26T07:48:51.792Z,-0.44
2023-02-26T07:51:23.298Z,-0.35
2023-02-26T07:53:54.744Z,-0.37
2023-02-26T07:56:26.374Z,-0.32
2023-02-26T07:58:57.791Z,-0.06
2023-02-26T08:01:29.143Z,0.04
2023-02-26T08:04:00.920Z,0.22
2023-02-26T08:06:32.234Z,0.27
2023-02-26T08:09:03.973Z,0.32
2023-02-26T08:11:39.545Z,0.36
2023-02-26T08:14:11.820Z,0.43
2023-02-26T08:16:43.464Z,0.50
2023-02-26T08:19:14.967Z,0.58
2023-02-26T08:21:46.323Z,0.66
2023-02-26T08:24:17.688Z,0.76
2023-02-26T08:26:49.261Z,0.74
2023-02-26T08:29:20.807Z,0.90
2023-02-26T08:31:52.551Z,0.97
2023-02-26T08:34:24.463Z,1.01
2023-02-26T08:36:55.724Z,1.06
2023-02-26T08:39:26.991Z,0.78
2023-02-26T08:41:58.252Z,1.17
2023-02-26T08:44:29.500Z,1.16
2023-02-26T08:47:00.911Z,1.29
2023-02-26T08:49:32.264Z,1.54
2023-02-26T08:52:03.873Z,1.52
2023-02-26T08:54:35.285Z,1.56
2023-02-26T08:57:06.750Z,1.61
2023-02-26T08:59:38.025Z,1.67
2023-02-26T09:02:13.031Z,1.73
2023-02-26T09:04:44.361Z,1.73
2023-02-26T09:07:15.689Z,1.82
2023-02-26T09:09:46.994Z,1.84
2023-02-26T09:12:18.399Z,1.88
2023-02-26T09:14:49.643Z,1.98
2023-02-26T09:17:20.911Z,2.07
2023-02-26T09:19:52.204Z,2.10
2023-02-26T09:22:23.562Z,2.07
2023-02-26T09:24:54.871Z,2.10
2023-02-26T09:27:26.538Z,2.25
2023-02-26T09:29:57.896Z,2.34
2023-02-26T09:32:29.431Z,2.39
2023-02-26T09:35:00.948Z,2.45
2023-02-26T09:37:32.610Z,2.49
2023-02-26T09:40:04.456Z,2.55
2023-02-26T09:42:52.775Z,2.65
2023-02-26T09:45:42.350Z,2.66
2023-02-26T09:48:18.690Z,2.61
2023-02-26T09:50:53.548Z,2.86
2023-02-26T09:53:34.104Z,2.94
2023-02-26T09:56:10.829Z,3.05
2023-02-26T09:58:44.118Z,3.00
2023-02-26T10:01:57.143Z,3.27
2023-02-26T10:05:16.176Z,3.26
2023-02-26T10:08:05.799Z,3.26
2023-02-26T10:11:13.201Z,3.36
2023-02-26T10:13:57.664Z,3.41
2023-02-26T10:16:37.537Z,3.52
2023-02-26T10:19:19.431Z,3.56
2023-02-26T10:21:59.049Z,3.59
2023-02-26T10:24:45.398Z,3.52
2023-02-26T10:27:22.416Z,3.63
2023-02-26T10:30:13.855Z,3.78
2023-02-26T10:33:03.784Z,3.96
2023-02-26T10:35:43.073Z,4.01
2023-02-26T10:38:20.407Z,4.06
2023-02-26T10:41:02.056Z,4.11
2023-02-26T10:43:45.039Z,4.21
2023-02-26T10:46:25.993Z,4.39
2023-02-26T10:49:17.875Z,4.50
2023-02-26T10:51:49.249Z,4.75
2023-02-26T10:54:45.219Z,4.87
2023-02-26T10:57:24.237Z,4.97
2023-02-26T10:59:55.507Z,5.19
2023-02-26T11:02:36.711Z,5.40
2023-02-26T11:05:17.632Z,5.34
2023-02-26T11:07:54.624Z,5.37
2023-02-26T11:10:40.168Z,5.25
2023-02-26T11:13:12.460Z,5.12
2023-02-26T11:15:48.672Z,4.86
2023-02-26T11:18:43.886Z,4.58
2023-02-26T11:21:22.434Z,4.46
2023-02-26T11:24:01.648Z,4.30
2023-02-26T11:26:36.557Z,4.20
2023-02-26T11:29:15.422Z,4.19
2023-02-26T11:31:57.968Z,4.06
2023-02-26T11:34:30.008Z,4.25
2023-02-26T11:37:02.251Z,4.26
2023-02-26T11:39:36.663Z,4.52
2023-02-26T11:42:07.963Z,4.90
2023-02-26T11:44:45.777Z,5.14
2023-02-26T11:47:24.700Z,5.45
2023-02-26T11:50:04.518Z,5.60
2023-02-26T11:52:41.826Z,5.70
2023-02-26T11:55:28.693Z,5.50
2023-02-26T11:57:59.970Z,5.47
2023-02-26T12:00:36.277Z,5.41
2023-02-26T12:03:14.761Z,5.35
2023-02-26T12:05:46.754Z,5.09
2023-02-26T12:08:38.701Z,5.03
2023-02-26T12:11:44.136Z,4.81
2023-02-26T12:14:52.873Z,4.77
2023-02-26T12:17:54.360Z,5.03
2023-02-26T12:20:25.584Z,5.18
2023-02-26T12:23:15.370Z,5.23
2023-02-26T12:25:52.679Z,5.29
2023-02-26T12:28:35.780Z,5.26
2023-02-26T12:31:48.395Z,5.15
2023-02-26T12:34:43.921Z,4.98
2023-02-26T12:37:42.502Z,4.73
2023-02-26T12:40:53.746Z,4.82
2023-02-26T12:43:45.858Z,5.00
2023-02-26T12:46:41.802Z,5.33
2023-02-26T12:49:39.051Z,5.50
2023-02-26T12:52:36.077Z,5.40
2023-02-26T12:55:24.170Z,5.61
2023-02-26T12:58:25.894Z,5.62
2023-02-26T13:01:17.407Z,5.49
2023-02-26T13:04:15.131Z,5.33
2023-02-26T13:07:01.574Z,5.45
2023-02-26T13:09:55.656Z,5.63
2023-02-26T13:12:40.545Z,5.75
2023-02-26T13:15:17.897Z,5.80
2023-02-26T13:17:57.264Z,5.99
2023-02-26T13:20:29.165Z,6.01
2023-02-26T13:23:11.814Z,6.13
2023-02-26T13:25:51.682Z,6.13
2023-02-26T13:28:40.586Z,6.19
2023-02-26T13:31:18.745Z,6.17
2023-02-26T13:33:53.116Z,6.12
2023-02-26T13:36:27.534Z,5.99
2023-02-26T13:39:21.522Z,6.00
2023-02-26T13:42:00.126Z,5.88
2023-02-26T13:45:05.165Z,5.83
2023-02-26T13:48:00.994Z,5.64
2023-02-26T13:50:35.063Z,5.67
2023-02-26T13:53:28.970Z,5.65
2023-02-26T13:56:13.296Z,5.75
2023-02-26T13:58:51.586Z,5.59
2023-02-26T14:01:34.150Z,5.67
2023-02-26T14:04:14.389Z,5.60
2023-02-26T14:06:48.586Z,5.57
2023-02-26T14:09:22.602Z,5.80
2023-02-26T14:12:12.813Z,6.06
2023-02-26T14:15:00.160Z,6.08
2023-02-26T14:17:34.232Z,6.06
2023-02-26T14:20:25.270Z,6.01
2023-02-26T14:23:07.767Z,5.85
2023-02-26T14:25:46.600Z,5.68
2023-02-26T14:28:19.519Z,5.61
2023-02-26T14:31:04.699Z,5.74
2023-02-26T14:33:57.326Z,5.66
2023-02-26T14:36:37.798Z,5.80
2023-02-26T14:39:22.228Z,5.86
2023-02-26T14:42:01.751Z,5.80
2023-02-26T14:44:43.863Z,5.59
2023-02-26T14:47:16.253Z,5.35
2023-02-26T14:49:49.440Z,5.18
2023-02-26T14:52:51.912Z,5.02
2023-02-26T14:55:54.817Z,4.83
2023-02-26T14:58:40.214Z,4.70
2023-02-26T15:01:21.865Z,4.68
2023-02-26T15:04:17.694Z,4.85
2023-02-26T15:07:07.904Z,4.99
2023-02-26T15:10:06.330Z,5.21
2023-02-26T15:12:55.648Z,5.29
2023-02-26T15:15:47.867Z,5.34
2023-02-26T15:18:40.342Z,5.35
2023-02-26T15:21:47.231Z,5.25
2023-02-26T15:24:19.248Z,5.18
2023-02-26T15:26:59.954Z,5.05
2023-02-26T15:29:35.362Z,4.91
2023-02-26T15:32:28.288Z,4.75
2023-02-26T15:35:04.651Z,4.69
2023-02-26T15:37:36.051Z,4.58
2023-02-26T15:40:08.676Z,4.36
2023-02-26T15:42:42.967Z,4.31
2023-02-26T15:45:26.348Z,4.36
2023-02-26T15:48:01.744Z,4.28
2023-02-26T15:50:36.924Z,4.38
2023-02-26T15:53:12.973Z,4.29
2023-02-26T15:55:51.461Z,4.36
2023-02-26T15:58:45.131Z,4.52
2023-02-26T16:01:20.041Z,4.58
2023-02-26T16:03:53.678Z,4.62
2023-02-26T16:06:37.910Z,4.57
2023-02-26T16:09:19.638Z,4.67
2023-02-26T16:11:55.250Z,4.66
2023-02-26T16:14:33.937Z,4.65
2023-02-26T16:17:08.052Z,4.58
2023-02-26T16:19:46.334Z,4.62
2023-02-26T16:22:33.490Z,4.51
2023-02-26T16:25:12.534Z,4.38
2023-02-26T16:27:47.646Z,4.22
2023-02-26T16:30:22.605Z,4.03
2023-02-26T16:32:55.433Z,3.95
2023-02-26T16:35:34.596Z,3.84
2023-02-26T16:38:17.099Z,3.74
2023-02-26T16:40:57.575Z,3.64
2023-02-26T16:43:35.349Z,3.55
2023-02-26T16:46:07.104Z,3.48
2023-02-26T16:48:48.539Z,3.42
2023-02-26T16:51:23.062Z,3.31
2023-02-26T16:54:02.958Z,3.34
2023-02-26T16:56:39.695Z,3.25
2023-02-26T16:59:16.777Z,3.17
2023-02-26T17:02:13.354Z,3.13
2023-02-26T17:04:50.402Z,3.08
2023-02-26T17:07:32.839Z,3.01
2023-02-26T17:10:16.478Z,2.91
2023-02-26T17:12:53.215Z,2.91
2023-02-26T17:15:32.022Z,2.88
2023-02-26T17:18:03.894Z,2.65
2023-02-26T17:20:36.499Z,2.73
2023-02-26T17:23:09.255Z,2.73
2023-02-26T17:25:47.228Z,2.76
2023-02-26T17:28:25.632Z,2.74
2023-02-26T17:30:57.761Z,2.72
2023-02-26T17:33:29.551Z,2.72
2023-02-26T17:36:03.870Z,2.74
2023-02-26T17:38:35.129Z,2.74
2023-02-26T17:41:06.414Z,2.72
2023-02-26T17:43:37.687Z,2.60
2023-02-26T17:46:12.045Z,2.57
2023-02-26T17:48:43.360Z,2.40
2023-02-26T17:51:16.168Z,2.39
2023-02-26T17:53:47.461Z,2.32
2023-02-26T17:56:26.700Z,2.24
2023-02-26T17:58:59.616Z,2.16
2023-02-26T18:01:31.158Z,2.13
2023-02-26T18:04:03.558Z,2.08
2023-02-26T18:06:37.141Z,2.06
2023-02-26T18:09:11.698Z,2.02
2023-02-26T18:11:43.146Z,1.90
2023-02-26T18:14:14.424Z,1.78
2023-02-26T18:16:46.718Z,1.83
2023-02-26T18:19:18.077Z,1.72
2023-02-26T18:21:49.342Z,1.67
2023-02-26T18:24:20.637Z,1.71
2023-02-26T18:26:52.693Z,1.59
2023-02-26T18:29:23.946Z,1.69
2023-02-26T18:31:55.376Z,1.69
2023-02-26T18:34:26.910Z,1.68
2023-02-26T18:36:58.332Z,1.64
2023-02-26T18:39:32.476Z,1.53
2023-02-26T18:42:04.931Z,1.51
2023-02-26T18:44:36.395Z,1.45
2023-02-26T18:47:08.616Z,1.26
2023-02-26T18:49:39.982Z,1.17
2023-02-26T18:52:13.033Z,1.18
2023-02-26T18:54:45.086Z,0.89
2023-02-26T18:57:16.996Z,0.97
2023-02-26T18:59:48.478Z,0.79
2023-02-26T19:02:20.960Z,0.70
2023-02-26T19:04:52.956Z,0.67
2023-02-26T19:07:24.252Z,0.60
2023-02-26T19:09:55.516Z,0.57
2023-02-26T19:12:26.777Z,0.53
2023-02-26T19:15:11.306Z,0.46
2023-02-26T19:17:42.653Z,0.43
2023-02-26T19:20:14.227Z,0.38
2023-02-26T19:22:46.508Z,0.38
2023-02-26T19:25:24.306Z,0.36
2023-02-26T19:27:55.991Z,0.37
2023-02-26T19:30:27.381Z,0.14
2023-02-26T19:32:58.664Z,0.19
2023-02-26T19:35:30.665Z,-0.09
2023-02-26T19:38:01.974Z,-0.04
2023-02-26T19:40:33.471Z,-0.16
2023-02-26T19:43:04.757Z,-0.25
2023-02-26T19:45:36.740Z,-0.38
2023-02-26T19:48:08.492Z,-0.35
2023-02-26T19:50:40.311Z,-0.42
2023-02-26T19:53:15.793Z,-0.71
2023-02-26T19:55:54.423Z,-0.56
2023-02-26T19:58:30.357Z,-0.67
2023-02-26T20:01:04.510Z,-0.70
2023-02-26T20:03:36.008Z,-0.77
2023-02-26T20:06:08.314Z,-0.83
2023-02-26T20:08:40.818Z,-0.89
2023-02-26T20:11:12.482Z,-1.17
2023-02-26T20:13:44.047Z,-1.13
2023-02-26T20:16:16.262Z,-1.09
2023-02-26T20:18:47.718Z,-1.17
2023-02-26T20:21:19.072Z,-1.32
2023-02-26T20:23:50.363Z,-1.18
2023-02-26T20:26:21.674Z,-1.25
2023-02-26T20:28:52.979Z,-1.48
2023-02-26T20:31:24.471Z,-1.51
2023-02-26T20:33:56.627Z,-1.42
2023-02-26T20:36:27.893Z,-1.48
2023-02-26T20:39:02.098Z,-1.55
2023-02-26T20:41:33.367Z,-1.60
2023-02-26T20:44:04.787Z,-1.62
2023-02-26T20:46:38.725Z,-1.67
2023-02-26T20:49:11.548Z,-2.07
2023-02-26T20:51:43.792Z,-1.77
2023-02-26T20:54:16.174Z,-1.82
2023-02-26T20:56:48.720Z,-1.83
2023-02-26T20:59:20.110Z,-1.84
2023-02-26T21:01:53.169Z,-1.85
2023-02-26T21:04:24.651Z,-1.91
2023-02-26T21:07:12.363Z,-1.92
2023-02-26T21:09:44.294Z,-2.03
2023-02-26T21:12:16.467Z,-1.93
2023-02-26T21:14:50.131Z,-1.97
2023-02-26T21:17:25.852Z,-1.95
2023-02-26T21:19:57.146Z,-2.00
2023-02-26T21:22:28.397Z,-2.10
2023-02-26T21:24:59.642Z,-2.07
2023-02-26T21:27:31.100Z,-2.25
2023-02-26T21:30:04.247Z,-2.17
2023-02-26T21:32:35.852Z,-2.19
2023-02-26T21:35:09.174Z,-2.28
2023-02-26T21:37:40.450Z,-2.27
2023-02-26T21:40:14.438Z,-2.38
2023-02-26T21:42:45.737Z,-2.43
2023-02-26T21:45:17.089Z,-2.35
2023-02-26T21:47:48.428Z,-2.37
2023-02-26T21:50:20.019Z,-2.40
2023-02-26T21:52:51.376Z,-2.52
2023-02-26T21:55:22.789Z,-2.47
2023-02-26T21:57:54.031Z,-2.50
2023-02-26T22:00:26.086Z,-2.52
2023-02-26T22:02:58.073Z,-2.57
2023-02-26T22:05:29.357Z,-2.85
2023-02-26T22:08:00.653Z,-2.66
2023-02-26T22:10:32.061Z,-2.65
2023-02-26T22:13:03.450Z,-2.68
2023-02-26T22:15:34.798Z,-2.71
2023-02-26T22:18:06.205Z,-2.75
2023-02-26T22:20:37.698Z,-2.84
2023-02-26T22:23:09.042Z,-2.82
2023-02-26T22:25:40.391Z,-2.85
2023-02-26T22:28:11.975Z,-2.88
2023-02-26T22:30:43.274Z,-2.89
2023-02-26T22:33:14.698Z,-2.91
2023-02-26T22:35:45.991Z,-2.93
2023-02-26T22:38:17.365Z,-3.00
2023-02-26T22:40:48.643Z,-2.92
2023-02-26T22:43:20.604Z,-2.99
2023-02-26T22:45:51.966Z,-3.01
2023-02-26T22:48:23.258Z,-3.01
2023-02-26T22:50:54.588Z,-3.03
2023-02-26T22:53:25.869Z,-3.08
2023-02-26T22:55:58.258Z,-3.09
2023-02-26T22:58:29.539Z,-3.10
2023-02-26T23:01:05.192Z,-3.11
2023-02-26T23:03:36.635Z,-3.13
2023-02-26T23:06:08.577Z,-3.15
2023-02-26T23:08:40.240Z,-3.23
2023-02-26T23:11:11.533Z,-3.19
2023-02-26T23:13:42.804Z,-3.21
2023-02-26T23:16:14.300Z,-3.22
2023-02-26T23:18:47.957Z,-3.31
2023-02-26T23:21:19.412Z,-3.33
2023-02-26T23:23:50.754Z,-3.30
2023-02-26T23:26:22.046Z,-3.37
2023-02-26T23:28:53.341Z,-3.36
2023-02-26T23:31:25.291Z,-3.41
2023-02-26T23:33:56.951Z,-3.39
2023-02-26T23:36:28.260Z,-3.44
2023-02-26T23:38:59.645Z,-3.46
2023-02-26T23:41:31.058Z,-3.54
2023-02-26T23:44:02.312Z,-3.64
2023-02-26T23:46:33.684Z,-3.58
2023-02-26T23:49:05.102Z,-3.58
2023-02-26T23:51:38.284Z,-3.62
2023-02-26T23:54:09.755Z,-3.54
2023-02-26T23:56:41.151Z,-3.56
2023-02-26T23:59:12.497Z,-3.57
